sensor_id;sensor_type;location;lat;lon;timestamp;P1;durP1;ratioP1;P2;durP2;ratioP2
70126;SDS011;57491;42.694;23.314;2022-07-29T00:01:15;11.20;;;8.98;;
70126;SDS011;57491;42.694;23.314;2022-07-29T00:03:42;12.98;;;10.57;;
70126;SDS011;57491;42.694;23.314;2022-07-29T00:06:10;13.23;;;10.15;;
70126;SDS011;57491;42.694;23.314;2022-07-29T00:08:37;13.32;;;10.18;;
70126;SDS011;57491;42.694;23.314;2022-07-29T00:11:04;12.88;;;10.07;;
70126;SDS011;57491;42.694;23.314;2022-07-29T00:13:32;11.98;;;10.65;;
70126;SDS011;57491;42.694;23.314;2022-07-29T00:15:59;12.30;;;9.90;;
70126;SDS011;57491;42.694;23.314;2022-07-29T00:18:27;12.32;;;10.60;;
70126;SDS011;57491;42.694;23.314;2022-07-29T00:20:54;14.82;;;10.93;;
70126;SDS011;57491;42.694;23.314;2022-07-29T00:23:22;13.10;;;10.20;;
70126;SDS011;57491;42.694;23.314;2022-07-29T00:25:49;14.63;;;10.50;;
70126;SDS011;57491;42.694;23.314;2022-07-29T00:28:16;11.85;;;10.45;;
70126;SDS011;57491;42.694;23.314;2022-07-29T00:30:44;11.68;;;10.00;;
70126;SDS011;57491;42.694;23.314;2022-07-29T00:33:11;12.80;;;10.23;;
70126;SDS011;57491;42.694;23.314;2022-07-29T00:35:38;12.25;;;10.50;;
70126;SDS011;57491;42.694;23.314;2022-07-29T00:38:11;11.98;;;10.15;;
70126;SDS011;57491;42.694;23.314;2022-07-29T00:40:40;13.77;;;10.40;;
70126;SDS011;57491;42.694;23.314;2022-07-29T00:43:08;13.27;;;10.65;;
70126;SDS011;57491;42.694;23.314;2022-07-29T00:45:35;12.77;;;10.52;;
70126;SDS011;57491;42.694;23.314;2022-07-29T00:48:03;13.63;;;11.35;;
70126;SDS011;57491;42.694;23.314;2022-07-29T00:50:32;14.55;;;12.23;;
70126;SDS011;57491;42.694;23.314;2022-07-29T00:52:59;17.13;;;13.70;;
70126;SDS011;57491;42.694;23.314;2022-07-29T00:55:27;15.50;;;12.38;;
70126;SDS011;57491;42.694;23.314;2022-07-29T00:57:54;16.67;;;13.18;;
70126;SDS011;57491;42.694;23.314;2022-07-29T01:00:25;14.80;;;12.27;;
70126;SDS011;57491;42.694;23.314;2022-07-29T01:02:54;14.43;;;11.90;;
70126;SDS011;57491;42.694;23.314;2022-07-29T01:05:23;14.43;;;11.95;;
70126;SDS011;57491;42.694;23.314;2022-07-29T01:07:51;15.45;;;12.55;;
70126;SDS011;57491;42.694;23.314;2022-07-29T01:10:20;14.98;;;12.48;;
70126;SDS011;57491;42.694;23.314;2022-07-29T01:12:49;15.32;;;12.25;;
70126;SDS011;57491;42.694;23.314;2022-07-29T01:15:18;18.83;;;13.20;;
70126;SDS011;57491;42.694;23.314;2022-07-29T01:17:46;14.02;;;12.52;;
70126;SDS011;57491;42.694;23.314;2022-07-29T01:20:20;16.65;;;13.40;;
70126;SDS011;57491;42.694;23.314;2022-07-29T01:23:01;15.88;;;12.85;;
70126;SDS011;57491;42.694;23.314;2022-07-29T01:29:06;18.00;;;13.82;;
70126;SDS011;57491;42.694;23.314;2022-07-29T01:31:42;15.98;;;12.55;;
70126;SDS011;57491;42.694;23.314;2022-07-29T01:34:16;16.67;;;12.02;;
70126;SDS011;57491;42.694;23.314;2022-07-29T01:36:48;15.85;;;12.45;;
70126;SDS011;57491;42.694;23.314;2022-07-29T01:39:23;17.73;;;12.38;;
70126;SDS011;57491;42.694;23.314;2022-07-29T01:41:57;17.08;;;12.98;;
70126;SDS011;57491;42.694;23.314;2022-07-29T01:44:32;14.85;;;12.50;;
70126;SDS011;57491;42.694;23.314;2022-07-29T01:47:05;16.35;;;13.00;;
70126;SDS011;57491;42.694;23.314;2022-07-29T01:49:39;17.13;;;12.35;;
70126;SDS011;57491;42.694;23.314;2022-07-29T01:52:11;16.42;;;13.90;;
70126;SDS011;57491;42.694;23.314;2022-07-29T01:54:48;16.70;;;13.25;;
70126;SDS011;57491;42.694;23.314;2022-07-29T01:57:19;15.27;;;12.38;;
70126;SDS011;57491;42.694;23.314;2022-07-29T01:59:52;15.73;;;12.63;;
70126;SDS011;57491;42.694;23.314;2022-07-29T02:02:22;15.25;;;13.18;;
70126;SDS011;57491;42.694;23.314;2022-07-29T02:04:51;15.57;;;13.30;;
70126;SDS011;57491;42.694;23.314;2022-07-29T02:07:21;17.85;;;13.35;;
70126;SDS011;57491;42.694;23.314;2022-07-29T02:09:50;18.95;;;13.90;;
70126;SDS011;57491;42.694;23.314;2022-07-29T02:12:19;17.13;;;13.80;;
70126;SDS011;57491;42.694;23.314;2022-07-29T02:14:49;18.90;;;14.20;;
70126;SDS011;57491;42.694;23.314;2022-07-29T02:17:21;15.50;;;13.32;;
70126;SDS011;57491;42.694;23.314;2022-07-29T02:19:50;17.95;;;13.70;;
70126;SDS011;57491;42.694;23.314;2022-07-29T02:22:19;17.00;;;13.63;;
70126;SDS011;57491;42.694;23.314;2022-07-29T02:24:46;16.38;;;13.60;;
70126;SDS011;57491;42.694;23.314;2022-07-29T02:27:15;16.55;;;13.73;;
70126;SDS011;57491;42.694;23.314;2022-07-29T02:29:45;15.77;;;13.32;;
70126;SDS011;57491;42.694;23.314;2022-07-29T02:32:14;16.90;;;13.23;;
70126;SDS011;57491;42.694;23.314;2022-07-29T02:34:44;19.95;;;13.63;;
70126;SDS011;57491;42.694;23.314;2022-07-29T02:37:13;16.92;;;14.00;;
70126;SDS011;57491;42.694;23.314;2022-07-29T02:39:43;17.33;;;13.70;;
70126;SDS011;57491;42.694;23.314;2022-07-29T02:42:11;18.70;;;14.38;;
70126;SDS011;57491;42.694;23.314;2022-07-29T02:44:41;17.95;;;14.02;;
70126;SDS011;57491;42.694;23.314;2022-07-29T02:47:10;17.13;;;14.05;;
70126;SDS011;57491;42.694;23.314;2022-07-29T02:49:46;20.05;;;13.57;;
70126;SDS011;57491;42.694;23.314;2022-07-29T02:52:19;18.05;;;14.30;;
70126;SDS011;57491;42.694;23.314;2022-07-29T02:54:51;17.17;;;13.88;;
70126;SDS011;57491;42.694;23.314;2022-07-29T02:57:22;18.25;;;13.85;;
70126;SDS011;57491;42.694;23.314;2022-07-29T02:59:59;20.90;;;13.50;;
70126;SDS011;57491;42.694;23.314;2022-07-29T03:02:30;17.50;;;13.52;;
70126;SDS011;57491;42.694;23.314;2022-07-29T03:05:03;16.52;;;13.65;;
70126;SDS011;57491;42.694;23.314;2022-07-29T03:07:33;16.40;;;13.25;;
70126;SDS011;57491;42.694;23.314;2022-07-29T03:10:01;18.00;;;14.57;;
70126;SDS011;57491;42.694;23.314;2022-07-29T03:12:30;19.50;;;14.77;;
70126;SDS011;57491;42.694;23.314;2022-07-29T03:14:57;21.25;;;15.85;;
70126;SDS011;57491;42.694;23.314;2022-07-29T03:17:28;21.67;;;14.07;;
70126;SDS011;57491;42.694;23.314;2022-07-29T03:20:07;17.70;;;13.18;;
70126;SDS011;57491;42.694;23.314;2022-07-29T03:22:38;17.50;;;11.82;;
70126;SDS011;57491;42.694;23.314;2022-07-29T03:25:09;20.13;;;12.27;;
70126;SDS011;57491;42.694;23.314;2022-07-29T03:27:37;16.23;;;11.45;;
70126;SDS011;57491;42.694;23.314;2022-07-29T03:30:05;15.95;;;12.57;;
70126;SDS011;57491;42.694;23.314;2022-07-29T03:32:33;15.85;;;12.32;;
70126;SDS011;57491;42.694;23.314;2022-07-29T03:35:00;17.60;;;12.25;;
70126;SDS011;57491;42.694;23.314;2022-07-29T03:37:29;18.35;;;12.60;;
70126;SDS011;57491;42.694;23.314;2022-07-29T03:39:57;16.10;;;12.73;;
70126;SDS011;57491;42.694;23.314;2022-07-29T03:42:25;15.75;;;12.77;;
70126;SDS011;57491;42.694;23.314;2022-07-29T03:44:54;14.70;;;12.15;;
70126;SDS011;57491;42.694;23.314;2022-07-29T03:47:24;17.25;;;12.57;;
70126;SDS011;57491;42.694;23.314;2022-07-29T03:49:55;14.57;;;11.68;;
70126;SDS011;57491;42.694;23.314;2022-07-29T03:52:26;16.42;;;11.38;;
70126;SDS011;57491;42.694;23.314;2022-07-29T03:54:54;15.25;;;11.43;;
70126;SDS011;57491;42.694;23.314;2022-07-29T03:57:24;19.13;;;11.02;;
70126;SDS011;57491;42.694;23.314;2022-07-29T03:59:54;16.75;;;11.50;;
70126;SDS011;57491;42.694;23.314;2022-07-29T04:02:22;19.08;;;14.30;;
70126;SDS011;57491;42.694;23.314;2022-07-29T04:04:51;17.20;;;14.57;;
70126;SDS011;57491;42.694;23.314;2022-07-29T04:07:18;20.13;;;14.95;;
70126;SDS011;57491;42.694;23.314;2022-07-29T04:09:45;21.00;;;15.25;;
70126;SDS011;57491;42.694;23.314;2022-07-29T04:12:14;19.23;;;14.15;;
70126;SDS011;57491;42.694;23.314;2022-07-29T04:14:41;24.00;;;15.05;;
70126;SDS011;57491;42.694;23.314;2022-07-29T04:17:08;20.90;;;14.70;;
70126;SDS011;57491;42.694;23.314;2022-07-29T04:19:35;18.83;;;13.57;;
70126;SDS011;57491;42.694;23.314;2022-07-29T04:22:02;17.40;;;12.00;;
70126;SDS011;57491;42.694;23.314;2022-07-29T04:24:30;15.00;;;10.85;;
70126;SDS011;57491;42.694;23.314;2022-07-29T04:26:57;14.07;;;10.77;;
70126;SDS011;57491;42.694;23.314;2022-07-29T04:29:25;15.40;;;9.70;;
70126;SDS011;57491;42.694;23.314;2022-07-29T04:31:52;12.50;;;10.18;;
70126;SDS011;57491;42.694;23.314;2022-07-29T04:34:20;12.98;;;9.88;;
70126;SDS011;57491;42.694;23.314;2022-07-29T04:36:47;14.90;;;10.80;;
70126;SDS011;57491;42.694;23.314;2022-07-29T04:39:14;16.17;;;10.75;;
70126;SDS011;57491;42.694;23.314;2022-07-29T04:41:52;11.48;;;9.45;;
70126;SDS011;57491;42.694;23.314;2022-07-29T04:44:34;14.98;;;10.35;;
70126;SDS011;57491;42.694;23.314;2022-07-29T04:47:01;14.73;;;11.48;;
70126;SDS011;57491;42.694;23.314;2022-07-29T04:49:29;12.43;;;10.93;;
70126;SDS011;57491;42.694;23.314;2022-07-29T04:51:56;17.05;;;11.65;;
70126;SDS011;57491;42.694;23.314;2022-07-29T04:54:23;12.85;;;10.00;;
70126;SDS011;57491;42.694;23.314;2022-07-29T04:56:50;11.90;;;10.00;;
70126;SDS011;57491;42.694;23.314;2022-07-29T04:59:17;11.85;;;10.20;;
70126;SDS011;57491;42.694;23.314;2022-07-29T05:01:46;12.82;;;8.73;;
70126;SDS011;57491;42.694;23.314;2022-07-29T05:04:13;14.48;;;10.15;;
70126;SDS011;57491;42.694;23.314;2022-07-29T05:06:40;14.65;;;9.32;;
70126;SDS011;57491;42.694;23.314;2022-07-29T05:09:07;12.05;;;9.57;;
70126;SDS011;57491;42.694;23.314;2022-07-29T05:11:34;11.57;;;9.50;;
70126;SDS011;57491;42.694;23.314;2022-07-29T05:14:01;12.65;;;9.38;;
70126;SDS011;57491;42.694;23.314;2022-07-29T05:19:10;10.13;;;9.13;;
70126;SDS011;57491;42.694;23.314;2022-07-29T05:21:59;13.50;;;8.85;;
70126;SDS011;57491;42.694;23.314;2022-07-29T05:24:27;10.50;;;8.10;;
70126;SDS011;57491;42.694;23.314;2022-07-29T05:26:54;11.93;;;9.45;;
70126;SDS011;57491;42.694;23.314;2022-07-29T05:29:21;11.30;;;9.25;;
70126;SDS011;57491;42.694;23.314;2022-07-29T05:32:07;13.60;;;8.77;;
70126;SDS011;57491;42.694;23.314;2022-07-29T05:34:36;14.70;;;8.43;;
70126;SDS011;57491;42.694;23.314;2022-07-29T05:37:03;11.13;;;8.55;;
70126;SDS011;57491;42.694;23.314;2022-07-29T05:39:31;9.23;;;8.27;;
70126;SDS011;57491;42.694;23.314;2022-07-29T05:41:58;11.98;;;8.52;;
70126;SDS011;57491;42.694;23.314;2022-07-29T05:44:25;11.15;;;7.60;;
70126;SDS011;57491;42.694;23.314;2022-07-29T05:46:52;14.45;;;8.73;;
70126;SDS011;57491;42.694;23.314;2022-07-29T05:49:19;10.35;;;8.20;;
70126;SDS011;57491;42.694;23.314;2022-07-29T05:51:48;10.77;;;7.60;;
70126;SDS011;57491;42.694;23.314;2022-07-29T05:54:16;10.18;;;7.95;;
70126;SDS011;57491;42.694;23.314;2022-07-29T05:56:43;9.10;;;8.20;;
70126;SDS011;57491;42.694;23.314;2022-07-29T05:59:10;8.52;;;7.10;;
70126;SDS011;57491;42.694;23.314;2022-07-29T06:01:37;10.88;;;7.40;;
70126;SDS011;57491;42.694;23.314;2022-07-29T06:04:05;9.30;;;7.60;;
70126;SDS011;57491;42.694;23.314;2022-07-29T06:06:33;9.75;;;7.82;;
70126;SDS011;57491;42.694;23.314;2022-07-29T06:09:02;8.65;;;7.15;;
70126;SDS011;57491;42.694;23.314;2022-07-29T06:11:29;9.98;;;6.25;;
70126;SDS011;57491;42.694;23.314;2022-07-29T06:13:57;10.88;;;7.28;;
70126;SDS011;57491;42.694;23.314;2022-07-29T06:16:24;9.93;;;7.25;;
70126;SDS011;57491;42.694;23.314;2022-07-29T06:18:51;7.70;;;6.13;;
70126;SDS011;57491;42.694;23.314;2022-07-29T06:23:45;8.05;;;6.65;;
70126;SDS011;57491;42.694;23.314;2022-07-29T06:26:15;6.70;;;6.05;;
70126;SDS011;57491;42.694;23.314;2022-07-29T06:28:42;6.97;;;6.38;;
70126;SDS011;57491;42.694;23.314;2022-07-29T06:31:09;9.90;;;5.93;;
70126;SDS011;57491;42.694;23.314;2022-07-29T06:33:36;11.73;;;7.88;;
70126;SDS011;57491;42.694;23.314;2022-07-29T06:36:03;10.15;;;7.13;;
70126;SDS011;57491;42.694;23.314;2022-07-29T06:38:32;10.70;;;6.50;;
70126;SDS011;57491;42.694;23.314;2022-07-29T06:40:59;7.38;;;6.53;;
70126;SDS011;57491;42.694;23.314;2022-07-29T06:43:29;10.95;;;7.80;;
70126;SDS011;57491;42.694;23.314;2022-07-29T06:45:59;9.38;;;7.10;;
70126;SDS011;57491;42.694;23.314;2022-07-29T06:48:28;8.02;;;5.53;;
70126;SDS011;57491;42.694;23.314;2022-07-29T06:50:55;8.15;;;6.30;;
70126;SDS011;57491;42.694;23.314;2022-07-29T06:53:22;7.20;;;5.72;;
70126;SDS011;57491;42.694;23.314;2022-07-29T06:58:17;11.45;;;8.45;;
70126;SDS011;57491;42.694;23.314;2022-07-29T07:00:47;7.18;;;6.43;;
70126;SDS011;57491;42.694;23.314;2022-07-29T07:03:14;9.32;;;6.78;;
70126;SDS011;57491;42.694;23.314;2022-07-29T07:05:42;8.13;;;5.82;;
70126;SDS011;57491;42.694;23.314;2022-07-29T07:08:09;6.75;;;6.05;;
70126;SDS011;57491;42.694;23.314;2022-07-29T07:10:37;7.20;;;5.53;;
70126;SDS011;57491;42.694;23.314;2022-07-29T07:13:05;6.32;;;5.65;;
70126;SDS011;57491;42.694;23.314;2022-07-29T07:18:00;7.15;;;5.90;;
70126;SDS011;57491;42.694;23.314;2022-07-29T07:20:28;7.75;;;5.38;;
70126;SDS011;57491;42.694;23.314;2022-07-29T07:22:55;10.18;;;5.85;;
70126;SDS011;57491;42.694;23.314;2022-07-29T07:25:25;6.95;;;5.55;;
70126;SDS011;57491;42.694;23.314;2022-07-29T07:27:52;6.50;;;5.20;;
70126;SDS011;57491;42.694;23.314;2022-07-29T07:30:19;7.70;;;6.45;;
70126;SDS011;57491;42.694;23.314;2022-07-29T07:32:46;7.53;;;5.47;;
70126;SDS011;57491;42.694;23.314;2022-07-29T07:35:15;4.97;;;4.47;;
70126;SDS011;57491;42.694;23.314;2022-07-29T07:37:43;6.32;;;4.93;;
70126;SDS011;57491;42.694;23.314;2022-07-29T07:42:38;6.85;;;5.47;;
70126;SDS011;57491;42.694;23.314;2022-07-29T07:47:34;5.60;;;5.10;;
70126;SDS011;57491;42.694;23.314;2022-07-29T07:50:02;6.97;;;6.28;;
70126;SDS011;57491;42.694;23.314;2022-07-29T07:52:31;9.38;;;5.78;;
70126;SDS011;57491;42.694;23.314;2022-07-29T07:54:59;6.20;;;5.68;;
70126;SDS011;57491;42.694;23.314;2022-07-29T07:57:26;5.68;;;4.88;;
70126;SDS011;57491;42.694;23.314;2022-07-29T07:59:53;5.57;;;5.07;;
70126;SDS011;57491;42.694;23.314;2022-07-29T08:02:20;8.43;;;6.50;;
70126;SDS011;57491;42.694;23.314;2022-07-29T08:04:48;7.30;;;5.80;;
70126;SDS011;57491;42.694;23.314;2022-07-29T08:07:15;7.07;;;5.93;;
70126;SDS011;57491;42.694;23.314;2022-07-29T08:09:43;8.27;;;6.63;;
70126;SDS011;57491;42.694;23.314;2022-07-29T08:12:10;7.15;;;5.53;;
70126;SDS011;57491;42.694;23.314;2022-07-29T08:14:38;5.65;;;5.15;;
70126;SDS011;57491;42.694;23.314;2022-07-29T08:17:05;5.28;;;4.70;;
70126;SDS011;57491;42.694;23.314;2022-07-29T08:21:59;7.70;;;5.30;;
70126;SDS011;57491;42.694;23.314;2022-07-29T08:24:26;4.80;;;4.40;;
70126;SDS011;57491;42.694;23.314;2022-07-29T08:27:19;5.88;;;4.95;;
70126;SDS011;57491;42.694;23.314;2022-07-29T08:29:47;5.78;;;4.47;;
70126;SDS011;57491;42.694;23.314;2022-07-29T08:32:14;5.15;;;4.65;;
70126;SDS011;57491;42.694;23.314;2022-07-29T08:34:41;6.93;;;4.68;;
70126;SDS011;57491;42.694;23.314;2022-07-29T08:37:11;7.30;;;4.32;;
70126;SDS011;57491;42.694;23.314;2022-07-29T08:39:39;4.68;;;4.28;;
70126;SDS011;57491;42.694;23.314;2022-07-29T08:42:06;9.32;;;7.15;;
70126;SDS011;57491;42.694;23.314;2022-07-29T08:44:36;5.47;;;4.40;;
70126;SDS011;57491;42.694;23.314;2022-07-29T08:47:05;7.00;;;4.07;;
70126;SDS011;57491;42.694;23.314;2022-07-29T08:49:32;5.43;;;4.78;;
70126;SDS011;57491;42.694;23.314;2022-07-29T08:52:01;5.38;;;4.47;;
70126;SDS011;57491;42.694;23.314;2022-07-29T08:54:29;5.38;;;4.05;;
70126;SDS011;57491;42.694;23.314;2022-07-29T08:56:57;4.57;;;4.18;;
70126;SDS011;57491;42.694;23.314;2022-07-29T08:59:26;5.68;;;4.35;;
70126;SDS011;57491;42.694;23.314;2022-07-29T09:01:56;4.95;;;4.30;;
70126;SDS011;57491;42.694;23.314;2022-07-29T09:04:24;4.38;;;4.00;;
70126;SDS011;57491;42.694;23.314;2022-07-29T09:06:56;5.57;;;4.38;;
70126;SDS011;57491;42.694;23.314;2022-07-29T09:09:26;5.93;;;4.00;;
70126;SDS011;57491;42.694;23.314;2022-07-29T09:11:53;8.30;;;4.72;;
70126;SDS011;57491;42.694;23.314;2022-07-29T09:14:20;5.18;;;4.30;;
70126;SDS011;57491;42.694;23.314;2022-07-29T09:19:21;4.78;;;4.30;;
70126;SDS011;57491;42.694;23.314;2022-07-29T09:21:50;4.93;;;4.30;;
70126;SDS011;57491;42.694;23.314;2022-07-29T09:24:25;5.10;;;4.50;;
70126;SDS011;57491;42.694;23.314;2022-07-29T09:27:10;5.60;;;4.70;;
70126;SDS011;57491;42.694;23.314;2022-07-29T09:29:45;4.30;;;3.95;;
70126;SDS011;57491;42.694;23.314;2022-07-29T09:32:12;4.95;;;4.10;;
70126;SDS011;57491;42.694;23.314;2022-07-29T09:34:41;4.70;;;4.25;;
70126;SDS011;57491;42.694;23.314;2022-07-29T09:37:08;5.35;;;4.68;;
70126;SDS011;57491;42.694;23.314;2022-07-29T09:39:37;6.28;;;4.43;;
70126;SDS011;57491;42.694;23.314;2022-07-29T09:42:11;5.20;;;4.13;;
70126;SDS011;57491;42.694;23.314;2022-07-29T09:44:43;5.90;;;5.30;;
70126;SDS011;57491;42.694;23.314;2022-07-29T09:47:13;6.15;;;5.22;;
70126;SDS011;57491;42.694;23.314;2022-07-29T09:49:52;5.10;;;4.50;;
70126;SDS011;57491;42.694;23.314;2022-07-29T09:52:23;5.13;;;4.43;;
70126;SDS011;57491;42.694;23.314;2022-07-29T09:54:51;7.43;;;6.47;;
70126;SDS011;57491;42.694;23.314;2022-07-29T09:57:23;5.25;;;4.85;;
70126;SDS011;57491;42.694;23.314;2022-07-29T10:00:02;5.28;;;4.50;;
70126;SDS011;57491;42.694;23.314;2022-07-29T10:02:32;5.72;;;4.72;;
70126;SDS011;57491;42.694;23.314;2022-07-29T10:05:03;6.88;;;4.40;;
70126;SDS011;57491;42.694;23.314;2022-07-29T10:10:19;4.88;;;4.47;;
70126;SDS011;57491;42.694;23.314;2022-07-29T10:12:54;4.95;;;4.35;;
70126;SDS011;57491;42.694;23.314;2022-07-29T10:15:24;5.40;;;4.97;;
70126;SDS011;57491;42.694;23.314;2022-07-29T10:17:53;7.00;;;4.78;;
70126;SDS011;57491;42.694;23.314;2022-07-29T10:20:24;5.18;;;4.68;;
70126;SDS011;57491;42.694;23.314;2022-07-29T10:22:52;5.13;;;4.72;;
70126;SDS011;57491;42.694;23.314;2022-07-29T10:25:21;5.82;;;5.00;;
70126;SDS011;57491;42.694;23.314;2022-07-29T10:27:49;5.72;;;5.22;;
70126;SDS011;57491;42.694;23.314;2022-07-29T10:30:17;5.38;;;4.50;;
70126;SDS011;57491;42.694;23.314;2022-07-29T10:32:51;5.97;;;4.30;;
70126;SDS011;57491;42.694;23.314;2022-07-29T10:35:43;5.18;;;4.78;;
70126;SDS011;57491;42.694;23.314;2022-07-29T10:41:19;6.10;;;5.22;;
70126;SDS011;57491;42.694;23.314;2022-07-29T10:44:01;5.07;;;4.60;;
70126;SDS011;57491;42.694;23.314;2022-07-29T10:46:34;4.75;;;4.35;;
70126;SDS011;57491;42.694;23.314;2022-07-29T10:49:06;5.43;;;4.93;;
70126;SDS011;57491;42.694;23.314;2022-07-29T10:51:55;4.68;;;4.20;;
70126;SDS011;57491;42.694;23.314;2022-07-29T10:54:40;5.18;;;4.47;;
70126;SDS011;57491;42.694;23.314;2022-07-29T10:57:11;7.35;;;4.80;;
70126;SDS011;57491;42.694;23.314;2022-07-29T10:59:42;5.03;;;4.50;;
70126;SDS011;57491;42.694;23.314;2022-07-29T11:05:13;5.50;;;4.47;;
70126;SDS011;57491;42.694;23.314;2022-07-29T11:10:48;7.85;;;5.18;;
70126;SDS011;57491;42.694;23.314;2022-07-29T11:16:15;5.50;;;5.00;;
70126;SDS011;57491;42.694;23.314;2022-07-29T11:21:50;6.40;;;4.82;;
70126;SDS011;57491;42.694;23.314;2022-07-29T11:24:21;5.10;;;4.57;;
70126;SDS011;57491;42.694;23.314;2022-07-29T11:29:49;5.18;;;4.70;;
70126;SDS011;57491;42.694;23.314;2022-07-29T11:32:18;5.60;;;5.10;;
70126;SDS011;57491;42.694;23.314;2022-07-29T11:34:49;6.10;;;5.50;;
70126;SDS011;57491;42.694;23.314;2022-07-29T11:38:22;5.38;;;4.97;;
70126;SDS011;57491;42.694;23.314;2022-07-29T11:43:51;7.03;;;6.43;;
70126;SDS011;57491;42.694;23.314;2022-07-29T11:49:13;7.25;;;5.80;;
70126;SDS011;57491;42.694;23.314;2022-07-29T11:51:50;6.38;;;5.78;;
70126;SDS011;57491;42.694;23.314;2022-07-29T11:54:25;7.82;;;5.63;;
70126;SDS011;57491;42.694;23.314;2022-07-29T11:56:58;6.35;;;5.70;;
70126;SDS011;57491;42.694;23.314;2022-07-29T11:59:25;5.68;;;5.15;;
70126;SDS011;57491;42.694;23.314;2022-07-29T12:01:53;6.00;;;5.50;;
70126;SDS011;57491;42.694;23.314;2022-07-29T12:04:20;5.85;;;5.30;;
70126;SDS011;57491;42.694;23.314;2022-07-29T12:06:49;6.30;;;5.80;;
70126;SDS011;57491;42.694;23.314;2022-07-29T12:09:19;6.85;;;6.35;;
70126;SDS011;57491;42.694;23.314;2022-07-29T12:11:47;6.30;;;5.65;;
70126;SDS011;57491;42.694;23.314;2022-07-29T12:14:26;6.13;;;5.47;;
70126;SDS011;57491;42.694;23.314;2022-07-29T12:16:53;6.13;;;5.63;;
70126;SDS011;57491;42.694;23.314;2022-07-29T12:19:21;5.97;;;5.32;;
70126;SDS011;57491;42.694;23.314;2022-07-29T12:21:48;6.07;;;5.57;;
70126;SDS011;57491;42.694;23.314;2022-07-29T12:24:18;6.40;;;5.75;;
70126;SDS011;57491;42.694;23.314;2022-07-29T12:26:49;5.80;;;5.30;;
70126;SDS011;57491;42.694;23.314;2022-07-29T12:29:18;6.10;;;5.60;;
70126;SDS011;57491;42.694;23.314;2022-07-29T12:31:50;7.10;;;6.05;;
70126;SDS011;57491;42.694;23.314;2022-07-29T12:34:19;6.30;;;5.68;;
70126;SDS011;57491;42.694;23.314;2022-07-29T12:36:48;6.32;;;5.82;;
70126;SDS011;57491;42.694;23.314;2022-07-29T12:39:16;7.03;;;6.43;;
70126;SDS011;57491;42.694;23.314;2022-07-29T12:41:44;8.88;;;6.32;;
70126;SDS011;57491;42.694;23.314;2022-07-29T12:44:11;7.03;;;5.78;;
70126;SDS011;57491;42.694;23.314;2022-07-29T12:46:39;6.70;;;6.10;;
70126;SDS011;57491;42.694;23.314;2022-07-29T12:49:07;5.72;;;5.32;;
70126;SDS011;57491;42.694;23.314;2022-07-29T12:51:35;6.97;;;5.82;;
70126;SDS011;57491;42.694;23.314;2022-07-29T12:54:04;5.97;;;5.47;;
70126;SDS011;57491;42.694;23.314;2022-07-29T12:56:33;7.47;;;6.28;;
70126;SDS011;57491;42.694;23.314;2022-07-29T12:59:10;7.20;;;6.40;;
70126;SDS011;57491;42.694;23.314;2022-07-29T13:01:38;6.90;;;6.20;;
70126;SDS011;57491;42.694;23.314;2022-07-29T13:04:05;6.55;;;6.05;;
70126;SDS011;57491;42.694;23.314;2022-07-29T13:06:35;11.55;;;7.85;;
70126;SDS011;57491;42.694;23.314;2022-07-29T13:09:05;9.57;;;6.28;;
70126;SDS011;57491;42.694;23.314;2022-07-29T13:11:36;7.70;;;6.90;;
70126;SDS011;57491;42.694;23.314;2022-07-29T13:14:05;7.03;;;6.32;;
70126;SDS011;57491;42.694;23.314;2022-07-29T13:16:34;7.07;;;6.47;;
70126;SDS011;57491;42.694;23.314;2022-07-29T13:19:05;6.75;;;6.15;;
70126;SDS011;57491;42.694;23.314;2022-07-29T13:21:39;6.60;;;6.00;;
70126;SDS011;57491;42.694;23.314;2022-07-29T13:24:06;7.75;;;6.28;;
70126;SDS011;57491;42.694;23.314;2022-07-29T13:26:34;7.50;;;6.60;;
70126;SDS011;57491;42.694;23.314;2022-07-29T13:29:02;6.72;;;6.10;;
70126;SDS011;57491;42.694;23.314;2022-07-29T13:31:29;7.10;;;6.40;;
70126;SDS011;57491;42.694;23.314;2022-07-29T13:33:56;7.22;;;6.40;;
70126;SDS011;57491;42.694;23.314;2022-07-29T13:36:24;11.02;;;6.80;;
70126;SDS011;57491;42.694;23.314;2022-07-29T13:38:53;6.63;;;6.13;;
70126;SDS011;57491;42.694;23.314;2022-07-29T13:41:20;7.03;;;6.32;;
70126;SDS011;57491;42.694;23.314;2022-07-29T13:46:14;7.28;;;6.32;;
70126;SDS011;57491;42.694;23.314;2022-07-29T13:51:08;7.70;;;7.00;;
70126;SDS011;57491;42.694;23.314;2022-07-29T13:56:04;6.65;;;6.05;;
70126;SDS011;57491;42.694;23.314;2022-07-29T13:58:32;7.40;;;6.38;;
70126;SDS011;57491;42.694;23.314;2022-07-29T14:03:31;6.70;;;5.93;;
70126;SDS011;57491;42.694;23.314;2022-07-29T14:08:26;6.53;;;5.78;;
70126;SDS011;57491;42.694;23.314;2022-07-29T14:10:53;6.55;;;5.85;;
70126;SDS011;57491;42.694;23.314;2022-07-29T14:15:54;7.22;;;5.88;;
70126;SDS011;57491;42.694;23.314;2022-07-29T14:18:22;6.80;;;6.22;;
70126;SDS011;57491;42.694;23.314;2022-07-29T14:20:49;6.90;;;6.30;;
70126;SDS011;57491;42.694;23.314;2022-07-29T14:23:17;6.93;;;6.32;;
70126;SDS011;57491;42.694;23.314;2022-07-29T14:25:44;6.75;;;6.18;;
70126;SDS011;57491;42.694;23.314;2022-07-29T14:30:40;8.90;;;6.53;;
70126;SDS011;57491;42.694;23.314;2022-07-29T14:33:07;6.88;;;6.05;;
70126;SDS011;57491;42.694;23.314;2022-07-29T14:35:34;7.28;;;6.47;;
70126;SDS011;57491;42.694;23.314;2022-07-29T14:40:28;6.97;;;6.28;;
70126;SDS011;57491;42.694;23.314;2022-07-29T14:42:55;8.88;;;6.22;;
70126;SDS011;57491;42.694;23.314;2022-07-29T14:47:51;8.30;;;6.55;;
70126;SDS011;57491;42.694;23.314;2022-07-29T14:50:18;6.22;;;5.63;;
70126;SDS011;57491;42.694;23.314;2022-07-29T14:52:45;7.28;;;6.32;;
70126;SDS011;57491;42.694;23.314;2022-07-29T14:55:12;6.80;;;5.80;;
70126;SDS011;57491;42.694;23.314;2022-07-29T14:57:39;6.82;;;5.57;;
70126;SDS011;57491;42.694;23.314;2022-07-29T15:00:07;7.25;;;6.40;;
70126;SDS011;57491;42.694;23.314;2022-07-29T15:02:36;7.35;;;6.65;;
70126;SDS011;57491;42.694;23.314;2022-07-29T15:05:05;10.52;;;7.05;;
70126;SDS011;57491;42.694;23.314;2022-07-29T15:07:32;7.55;;;6.60;;
70126;SDS011;57491;42.694;23.314;2022-07-29T15:12:27;7.25;;;6.63;;
70126;SDS011;57491;42.694;23.314;2022-07-29T15:14:54;7.25;;;6.55;;
70126;SDS011;57491;42.694;23.314;2022-07-29T15:22:18;7.45;;;6.35;;
70126;SDS011;57491;42.694;23.314;2022-07-29T15:24:45;9.27;;;6.90;;
70126;SDS011;57491;42.694;23.314;2022-07-29T15:29:40;6.60;;;6.00;;
70126;SDS011;57491;42.694;23.314;2022-07-29T15:32:07;7.13;;;6.53;;
70126;SDS011;57491;42.694;23.314;2022-07-29T15:37:03;6.88;;;6.22;;
70126;SDS011;57491;42.694;23.314;2022-07-29T15:39:32;7.70;;;6.90;;
70126;SDS011;57491;42.694;23.314;2022-07-29T15:41:59;7.82;;;7.10;;
70126;SDS011;57491;42.694;23.314;2022-07-29T15:44:27;7.90;;;6.60;;
70126;SDS011;57491;42.694;23.314;2022-07-29T15:46:55;8.68;;;7.88;;
70126;SDS011;57491;42.694;23.314;2022-07-29T15:49:32;6.80;;;6.20;;
70126;SDS011;57491;42.694;23.314;2022-07-29T15:52:00;7.18;;;6.53;;
70126;SDS011;57491;42.694;23.314;2022-07-29T15:54:29;7.05;;;6.32;;
70126;SDS011;57491;42.694;23.314;2022-07-29T15:56:57;8.52;;;7.35;;
70126;SDS011;57491;42.694;23.314;2022-07-29T15:59:25;8.80;;;7.38;;
70126;SDS011;57491;42.694;23.314;2022-07-29T16:01:52;7.20;;;6.60;;
70126;SDS011;57491;42.694;23.314;2022-07-29T16:04:19;8.10;;;7.32;;